Time;durP1;ratioP1;P1;durP2;ratioP2;P2;SDS_P1;SDS_P2;PMS_P1;PMS_P2;Temp;Humidity;BMP_temperature;BMP_pressure;BME280_temperature;BME280_humidity;BME280_pressure;Samples;Min_cycle;Max_cycle;Signal;HPM_P1;HPM_P2
2022/04/08 00:01:41;;;;;;;5.03;1.53;;;;;;;6.71;97.88;98095.78;5024195;28;20282;-56
2022/04/08 00:04:08;;;;;;;2.57;1.53;;;;;;;6.78;96.87;98092.09;5022856;28;20224;-55
2022/04/08 00:06:34;;;;;;;1.60;1.50;;;;;;;6.74;98.62;98096.53;5020065;28;20314;-55
2022/04/08 00:09:01;;;;;;;1.63;1.53;;;;;;;6.71;99.60;98107.06;5018830;28;20294;-58
2022/04/08 00:11:27;;;;;;;2.77;1.50;;;;;;;6.66;100.00;98109.78;5023100;28;20310;-57
2022/04/08 00:13:54;;;;;;;2.77;1.40;;;;;;;6.54;100.00;98102.31;5011996;28;20330;-57
2022/04/08 00:16:20;;;;;;;4.37;1.90;;;;;;;6.53;100.00;98102.31;5021946;28;20268;-56
2022/04/08 00:18:48;;;;;;;2.47;1.90;;;;;;;6.52;100.00;98091.03;5019272;28;20730;-56
2022/04/08 00:21:15;;;;;;;1.50;1.40;;;;;;;6.56;100.00;98117.88;5024179;28;20602;-57
2022/04/08 00:23:42;;;;;;;4.20;1.67;;;;;;;6.49;100.00;98111.13;5007786;28;20237;-58
2022/04/08 00:26:08;;;;;;;3.20;1.57;;;;;;;6.42;100.00;98120.84;5012482;28;20240;-57
2022/04/08 00:28:35;;;;;;;4.43;1.70;;;;;;;6.31;100.00;98121.13;5023692;28;20260;-57
2022/04/08 00:31:02;;;;;;;2.70;1.80;;;;;;;6.14;100.00;98116.38;5016949;28;20240;-57
2022/04/08 00:33:30;;;;;;;2.40;1.90;;;;;;;5.89;100.00;98141.28;5024042;28;20307;-57
2022/04/08 00:35:58;;;;;;;1.77;1.67;;;;;;;5.66;100.00;98152.25;5023116;28;20308;-55
2022/04/08 00:38:24;;;;;;;5.63;2.23;;;;;;;5.48;100.00;98145.69;5021554;28;20232;-55
2022/04/08 00:40:51;;;;;;;3.20;2.30;;;;;;;5.50;100.00;98155.16;5030038;28;20686;-55
2022/04/08 00:43:19;;;;;;;4.77;2.83;;;;;;;5.37;100.00;98179.75;5022087;28;20225;-56
2022/04/08 00:45:45;;;;;;;5.13;2.40;;;;;;;5.36;100.00;98178.03;5027514;28;20326;-55
2022/04/08 00:48:12;;;;;;;4.07;2.30;;;;;;;5.34;100.00;98185.03;5001270;28;20233;-56
2022/04/08 00:50:42;;;;;;;3.50;2.20;;;;;;;5.38;100.00;98193.63;5010803;28;20294;-54
2022/04/08 00:53:09;;;;;;;2.90;2.37;;;;;;;5.30;100.00;98208.50;4999769;28;20910;-53
2022/04/08 00:55:37;;;;;;;5.80;2.23;;;;;;;5.33;100.00;98211.06;5010895;28;20275;-52
2022/04/08 00:58:05;;;;;;;5.57;2.13;;;;;;;5.38;100.00;98222.25;4990099;28;20657;-52
2022/04/08 01:00:34;;;;;;;2.83;2.20;;;;;;;5.28;100.00;98223.31;4990106;28;20265;-52
2022/04/08 01:03:01;;;;;;;2.40;1.50;;;;;;;5.28;100.00;98228.53;5000723;28;20257;-53
2022/04/08 01:05:27;;;;;;;1.43;1.33;;;;;;;5.32;100.00;98236.22;5015906;28;20281;-52
2022/04/08 01:07:54;;;;;;;1.57;1.40;;;;;;;5.38;100.00;98254.31;5017285;28;20291;-52
2022/04/08 01:10:22;;;;;;;4.13;1.20;;;;;;;5.46;100.00;98246.34;5019918;28;20340;-54
2022/04/08 01:12:49;;;;;;;1.90;1.10;;;;;;;5.50;100.00;98261.00;5021788;28;20232;-53
2022/04/08 01:15:16;;;;;;;3.73;1.33;;;;;;;5.59;100.00;98265.19;5014920;28;20239;-54
2022/04/08 01:17:43;;;;;;;5.07;1.60;;;;;;;5.42;100.00;98287.19;5020866;28;20240;-57
2022/04/08 01:20:10;;;;;;;1.17;0.90;;;;;;;5.65;100.00;98281.53;5031321;28;20669;-56
2022/04/08 01:22:36;;;;;;;1.23;1.17;;;;;;;5.57;100.00;98304.22;5023815;28;20665;-55
2022/04/08 01:25:05;;;;;;;4.83;1.17;;;;;;;5.72;100.00;98305.66;5020978;28;20240;-58
2022/04/08 01:27:32;;;;;;;3.07;0.63;;;;;;;5.81;100.00;98310.69;5023522;28;20353;-56
2022/04/08 01:29:59;;;;;;;3.93;1.07;;;;;;;5.53;100.00;98310.41;5023144;28;20240;-57
2022/04/08 01:32:25;;;;;;;1.67;1.03;;;;;;;5.78;100.00;98339.38;5020108;28;20275;-57
2022/04/08 01:34:52;;;;;;;5.33;1.50;;;;;;;5.79;100.00;98325.50;5015770;28;20244;-56
2022/04/08 01:37:19;;;;;;;0.83;0.80;;;;;;;5.80;100.00;98335.03;5024292;28;20912;-57
2022/04/08 01:39:45;;;;;;;1.03;1.03;;;;;;;5.71;100.00;98351.66;5023664;28;20674;-57
2022/04/08 01:42:13;;;;;;;1.50;1.33;;;;;;;5.82;100.00;98342.78;5023856;28;20228;-56
2022/04/08 01:44:39;;;;;;;2.03;1.23;;;;;;;6.05;100.00;98348.41;5020550;28;20500;-54
2022/04/08 01:47:06;;;;;;;2.07;1.23;;;;;;;6.17;100.00;98371.59;5027713;28;20252;-56
2022/04/08 01:49:32;;;;;;;1.50;1.33;;;;;;;6.27;100.00;98369.66;5025025;28;20240;-57
2022/04/08 01:51:59;;;;;;;1.10;0.80;;;;;;;6.32;100.00;98372.16;5023816;28;20221;-56
2022/04/08 01:54:25;;;;;;;1.10;0.73;;;;;;;6.40;100.00;98372.84;5015668;28;20236;-57
2022/04/08 01:56:52;;;;;;;1.20;1.10;;;;;;;6.37;100.00;98372.91;5023545;28;20240;-56
2022/04/08 01:59:19;;;;;;;2.20;0.83;;;;;;;6.34;100.00;98375.59;5013635;28;20267;-56
2022/04/08 02:01:46;;;;;;;4.43;1.00;;;;;;;6.37;100.00;98378.13;5013912;28;20245;-56
2022/04/08 02:04:12;;;;;;;1.80;0.90;;;;;;;6.37;100.00;98375.53;5010033;28;20232;-56
2022/04/08 02:06:40;;;;;;;0.90;0.80;;;;;;;6.41;100.00;98382.38;5015217;28;20244;-56
2022/04/08 02:09:07;;;;;;;3.30;1.00;;;;;;;6.44;100.00;98390.13;5015700;28;20238;-57
2022/04/08 02:11:34;;;;;;;1.97;1.60;;;;;;;6.45;99.98;98391.84;5016645;28;20225;-56
2022/04/08 02:14:00;;;;;;;0.80;0.77;;;;;;;6.39;99.64;98398.06;5003550;28;20757;-57
2022/04/08 02:16:28;;;;;;;1.90;1.00;;;;;;;6.43;100.00;98404.06;5024806;28;20256;-56
2022/04/08 02:18:54;;;;;;;1.00;1.00;;;;;;;6.42;99.08;98413.63;5022463;28;20257;-56
2022/04/08 02:21:21;;;;;;;1.37;1.10;;;;;;;6.53;99.35;98413.41;5019118;28;20315;-56
2022/04/08 02:23:48;;;;;;;2.90;1.20;;;;;;;6.52;97.89;98416.03;5014646;28;20719;-56
2022/04/08 02:26:16;;;;;;;3.77;1.17;;;;;;;6.54;98.33;98422.94;5019761;28;20296;-57
2022/04/08 02:28:43;;;;;;;1.30;1.00;;;;;;;6.58;97.97;98421.09;5022902;28;20236;-56
2022/04/08 02:31:09;;;;;;;1.23;1.03;;;;;;;6.53;95.65;98426.44;5023533;28;20298;-55
2022/04/08 02:33:37;;;;;;;1.57;0.83;;;;;;;6.69;96.06;98435.59;5023458;28;20334;-56
2022/04/08 02:36:04;;;;;;;1.53;0.90;;;;;;;6.55;94.83;98434.22;5019213;28;20229;-57
2022/04/08 02:38:30;;;;;;;1.07;0.87;;;;;;;6.57;94.62;98448.06;5022389;28;20264;-57
2022/04/08 02:40:57;;;;;;;3.57;1.10;;;;;;;6.57;94.36;98445.47;5020373;28;20241;-56
2022/04/08 02:43:23;;;;;;;6.90;1.33;;;;;;;6.56;93.27;98475.03;5027082;28;20248;-55
2022/04/08 02:45:49;;;;;;;0.50;0.50;;;;;;;6.61;93.09;98447.13;5041274;28;20244;-57
2022/04/08 02:48:18;;;;;;;2.53;0.90;;;;;;;6.59;92.93;98457.56;5023291;28;20241;-56
2022/04/08 02:50:46;;;;;;;2.60;0.73;;;;;;;6.51;93.05;98449.06;5017657;28;20229;-55
2022/04/08 02:53:12;;;;;;;1.47;1.37;;;;;;;6.66;93.85;98459.16;5026992;28;20225;-58
2022/04/08 02:55:39;;;;;;;1.30;0.87;;;;;;;6.60;93.91;98458.41;5026159;28;20249;-57
2022/04/08 02:58:05;;;;;;;1.80;0.97;;;;;;;6.66;93.51;98469.56;5026890;28;20268;-56
2022/04/08 03:00:32;;;;;;;3.00;1.40;;;;;;;6.57;93.22;98471.53;5025884;28;20256;-57
2022/04/08 03:02:58;;;;;;;2.47;0.90;;;;;;;6.58;92.97;98474.09;5026488;28;20249;-56
2022/04/08 03:05:25;;;;;;;3.60;1.43;;;;;;;6.60;94.13;98474.06;5014268;28;20296;-55
2022/04/08 03:07:52;;;;;;;1.43;1.00;;;;;;;6.54;95.91;98493.31;5017692;28;20777;-55
2022/04/08 03:10:19;;;;;;;0.97;0.87;;;;;;;6.49;95.27;98497.75;5015754;28;20757;-55
2022/04/08 03:12:45;;;;;;;2.53;0.90;;;;;;;6.54;96.18;98493.31;5011565;28;20284;-56
2022/04/08 03:15:11;;;;;;;2.73;1.33;;;;;;;6.54;95.27;98485.50;5025817;28;20244;-57
2022/04/08 03:17:38;;;;;;;1.83;0.90;;;;;;;6.73;96.08;98511.16;5025989;28;20255;-56
2022/04/08 03:20:05;;;;;;;3.53;1.33;;;;;;;6.67;94.72;98507.81;5022142;28;20758;-56
2022/04/08 03:22:32;;;;;;;1.03;1.00;;;;;;;6.60;94.54;98515.78;5024269;28;20294;-56
2022/04/08 03:24:59;;;;;;;0.90;0.87;;;;;;;6.72;92.86;98535.53;5022809;28;20925;-55
2022/04/08 03:27:26;;;;;;;0.60;0.60;;;;;;;6.71;91.88;98524.25;5019024;28;20229;-56
2022/04/08 03:29:52;;;;;;;1.63;0.70;;;;;;;6.71;91.96;98523.41;5022487;28;20228;-56
2022/04/08 03:32:19;;;;;;;1.10;0.70;;;;;;;6.77;91.77;98542.34;5021814;28;20228;-56
2022/04/08 03:34:45;;;;;;;1.23;0.90;;;;;;;6.75;92.16;98541.53;5021818;28;20351;-57
2022/04/08 03:37:11;;;;;;;1.33;1.17;;;;;;;6.55;93.16;98549.75;5025659;28;20326;-56
2022/04/08 03:39:38;;;;;;;1.23;1.07;;;;;;;6.59;94.84;98554.03;5020627;28;20240;-57
2022/04/08 03:42:07;;;;;;;1.23;1.00;;;;;;;6.59;95.73;98568.81;5021688;28;20402;-56
2022/04/08 03:44:33;;;;;;;1.00;0.90;;;;;;;6.68;97.31;98548.63;5019567;28;20243;-55
2022/04/08 03:46:59;;;;;;;0.87;0.87;;;;;;;6.64;97.79;98559.16;5024985;28;20330;-56
2022/04/08 03:49:26;;;;;;;1.13;1.03;;;;;;;6.46;99.43;98560.38;5024461;28;20244;-56
2022/04/08 03:51:53;;;;;;;2.33;0.87;;;;;;;6.32;100.00;98578.91;5023043;28;20745;-60
2022/04/08 03:54:19;;;;;;;0.80;0.80;;;;;;;6.35;100.00;98583.16;5028066;28;20236;-56
2022/04/08 03:56:45;;;;;;;1.37;1.00;;;;;;;6.41;100.00;98577.84;5020126;28;20298;-56
2022/04/08 03:59:13;;;;;;;1.43;1.03;;;;;;;6.33;100.00;98600.59;5016194;28;20237;-55
2022/04/08 04:01:40;;;;;;;1.70;1.10;;;;;;;6.27;100.00;98601.56;5019669;28;20237;-58
2022/04/08 04:04:06;;;;;;;1.00;0.77;;;;;;;6.19;100.00;98617.34;5030661;28;20252;-57
2022/04/08 04:06:32;;;;;;;2.37;0.90;;;;;;;6.17;100.00;98611.28;5025088;28;20240;-56
2022/04/08 04:08:59;;;;;;;1.90;1.43;;;;;;;6.14;100.00;98616.56;5024399;28;20236;-55
2022/04/08 04:11:25;;;;;;;0.60;0.60;;;;;;;6.16;100.00;98614.78;5025452;28;20233;-55
2022/04/08 04:13:52;;;;;;;0.57;0.57;;;;;;;6.16;100.00;98630.41;5025278;28;20241;-56
2022/04/08 04:16:19;;;;;;;2.60;1.13;;;;;;;6.05;100.00;98655.78;5022660;28;20264;-55
2022/04/08 04:18:46;;;;;;;1.23;0.80;;;;;;;6.09;100.00;98660.06;5025102;28;20236;-59
2022/04/08 04:21:12;;;;;;;0.77;0.77;;;;;;;6.12;100.00;98659.16;5020398;28;20236;-57
2022/04/08 04:23:39;;;;;;;2.57;1.13;;;;;;;6.09;97.97;98669.63;5025841;28;20252;-56
2022/04/08 04:26:06;;;;;;;2.37;0.87;;;;;;;6.09;97.08;98704.34;5023779;28;20272;-56
2022/04/08 04:28:33;;;;;;;0.57;0.57;;;;;;;6.10;94.04;98693.03;5025030;28;20232;-57
2022/04/08 04:31:01;;;;;;;0.93;0.63;;;;;;;5.90;92.44;98719.38;5028859;28;20302;-55
2022/04/08 04:33:29;;;;;;;1.13;1.03;;;;;;;5.99;93.74;98736.63;5023761;28;20263;-56
2022/04/08 04:35:55;;;;;;;1.43;0.90;;;;;;;5.95;92.58;98732.34;5010095;28;20276;-57
2022/04/08 04:38:22;;;;;;;1.07;0.90;;;;;;;6.00;92.87;98758.31;5004832;28;20225;-57
2022/04/08 04:40:48;;;;;;;0.97;0.70;;;;;;;5.98;94.13;98766.16;5017611;28;20279;-57
2022/04/08 04:43:14;;;;;;;2.73;1.00;;;;;;;5.92;93.04;98769.69;5024289;28;20937;-56
2022/04/08 04:45:41;;;;;;;1.87;0.83;;;;;;;5.82;90.94;98769.81;5018536;28;20773;-55
2022/04/08 04:48:10;;;;;;;3.90;0.90;;;;;;;5.81;91.95;98773.31;5018895;28;20237;-55
2022/04/08 04:50:38;;;;;;;4.67;0.80;;;;;;;5.79;91.77;98782.88;5009259;28;20707;-55
2022/04/08 04:53:04;;;;;;;1.97;1.07;;;;;;;5.80;93.56;98787.22;5022520;28;20291;-57
2022/04/08 04:55:31;;;;;;;2.57;0.70;;;;;;;5.80;94.37;98780.28;5029334;28;20237;-57
2022/04/08 04:57:57;;;;;;;2.97;1.00;;;;;;;5.75;95.26;98788.13;5022891;28;20553;-56
2022/04/08 05:00:24;;;;;;;1.20;1.10;;;;;;;5.66;95.78;98806.47;5021303;28;20232;-56
2022/04/08 05:02:50;;;;;;;2.87;1.00;;;;;;;5.70;94.77;98815.97;5014113;28;20233;-55
2022/04/08 05:05:17;;;;;;;1.70;0.90;;;;;;;5.73;95.78;98813.34;5023117;28;20256;-56
2022/04/08 05:07:44;;;;;;;2.90;1.23;;;;;;;5.72;96.67;98822.03;5016656;28;20244;-55
2022/04/08 05:10:11;;;;;;;2.97;0.93;;;;;;;5.83;97.22;98831.47;5017940;28;20315;-57
2022/04/08 05:12:37;;;;;;;6.60;1.07;;;;;;;5.74;97.87;98835.03;5018984;28;20245;-56
2022/04/08 05:15:05;;;;;;;2.20;1.40;;;;;;;5.69;97.88;98832.47;5023518;28;20264;-57
2022/04/08 05:17:32;;;;;;;2.60;1.27;;;;;;;5.73;99.34;98830.69;5009711;28;20317;-56
2022/04/08 05:19:58;;;;;;;2.83;1.20;;;;;;;5.68;100.00;98843.75;5019483;28;20240;-57
2022/04/08 05:22:24;;;;;;;4.97;1.20;;;;;;;5.66;100.00;98848.13;5012288;28;20240;-57
2022/04/08 05:24:52;;;;;;;1.10;0.90;;;;;;;5.66;99.90;98852.47;5026839;28;20236;-57
2022/04/08 05:27:18;;;;;;;2.10;1.33;;;;;;;5.61;100.00;98855.13;5020501;28;20282;-57
2022/04/08 05:29:45;;;;;;;2.87;1.53;;;;;;;5.58;100.00;98860.38;5024253;28;20232;-56
2022/04/08 05:32:11;;;;;;;4.63;1.53;;;;;;;5.54;100.00;98861.28;5022127;28;20233;-57
2022/04/08 05:34:37;;;;;;;1.20;1.00;;;;;;;5.62;100.00;98864.69;5026370;28;20683;-56
2022/04/08 05:37:04;;;;;;;1.87;1.23;;;;;;;5.57;100.00;98876.00;5019677;28;20268;-56
2022/04/08 05:39:30;;;;;;;3.97;1.10;;;;;;;5.51;100.00;98889.97;5021776;28;20259;-56
2022/04/08 05:41:58;;;;;;;0.80;0.80;;;;;;;5.38;100.00;98889.22;5021611;28;20318;-56
2022/04/08 05:44:24;;;;;;;2.87;1.20;;;;;;;5.51;100.00;98887.38;5023351;28;20232;-56
2022/04/08 05:46:50;;;;;;;1.27;0.90;;;;;;;5.41;100.00;98897.00;5020863;28;20243;-57
2022/04/08 05:49:17;;;;;;;2.87;1.30;;;;;;;5.38;100.00;98903.97;5025374;28;20286;-55
2022/04/08 05:51:45;;;;;;;4.03;1.10;;;;;;;5.38;100.00;98922.19;5017271;28;20239;-56
2022/04/08 05:54:11;;;;;;;1.13;1.03;;;;;;;5.50;100.00;98909.91;5019315;28;20319;-56
2022/04/08 05:56:38;;;;;;;3.03;1.20;;;;;;;5.45;100.00;98921.25;5016510;28;20271;-56
2022/04/08 05:59:06;;;;;;;2.73;1.10;;;;;;;5.54;100.00;98913.31;5019567;28;20236;-56
2022/04/08 06:01:32;;;;;;;2.53;1.10;;;;;;;5.61;100.00;98920.19;5018913;28;20224;-56
2022/04/08 06:03:58;;;;;;;3.17;1.60;;;;;;;5.62;100.00;98918.50;5019624;28;20313;-55
2022/04/08 06:06:25;;;;;;;0.90;0.60;;;;;;;5.56;100.00;98929.81;5017755;28;20233;-55
2022/04/08 06:08:51;;;;;;;2.63;1.20;;;;;;;5.45;100.00;98932.53;5022066;28;20273;-55
2022/04/08 06:11:17;;;;;;;1.83;1.10;;;;;;;5.52;100.00;98922.91;5026688;28;20313;-56
2022/04/08 06:13:44;;;;;;;3.40;1.17;;;;;;;5.62;100.00;98928.91;5007700;28;20229;-56
2022/04/08 06:16:11;;;;;;;2.73;0.77;;;;;;;5.56;100.00;98939.38;5019878;28;20264;-56
2022/04/08 06:18:38;;;;;;;2.90;1.40;;;;;;;5.48;100.00;98929.88;5012256;28;20236;-56
2022/04/08 06:21:04;;;;;;;1.00;0.97;;;;;;;5.64;100.00;98929.72;5026170;28;20240;-56
2022/04/08 06:23:31;;;;;;;1.77;1.13;;;;;;;5.61;100.00;98941.03;5011336;28;20236;-56
2022/04/08 06:25:57;;;;;;;2.57;1.43;;;;;;;5.53;100.00;98960.22;5027022;28;20283;-57
2022/04/08 06:28:23;;;;;;;4.13;1.13;;;;;;;5.72;100.00;98952.22;5033756;28;20248;-56
2022/04/08 06:30:50;;;;;;;1.27;1.13;;;;;;;5.68;100.00;98954.84;5019802;28;20300;-56
2022/04/08 06:33:18;;;;;;;2.33;0.90;;;;;;;5.77;100.00;98961.72;5016379;28;20257;-56
2022/04/08 06:35:44;;;;;;;1.57;1.10;;;;;;;5.73;100.00;98956.53;5025889;28;20259;-55
2022/04/08 06:38:11;;;;;;;1.30;0.90;;;;;;;5.66;100.00;98967.91;5020034;28;20239;-55
2022/04/08 06:40:38;;;;;;;2.33;1.10;;;;;;;5.55;100.00;99042.63;5037021;28;20266;-52
2022/04/08 06:43:05;;;;;;;2.67;0.80;;;;;;;4.49;100.00;99051.06;5025373;28;20224;-54
2022/04/08 06:45:32;;;;;;;1.13;0.97;;;;;;;3.81;100.00;99050.31;5021037;28;20609;-54
2022/04/08 06:47:59;;;;;;;1.00;0.97;;;;;;;3.30;100.00;99054.66;5023923;28;20778;-54
2022/04/08 06:50:27;;;;;;;2.20;0.80;;;;;;;3.13;100.00;99048.59;5030979;28;20239;-54
2022/04/08 06:52:59;;;;;;;5.57;1.33;;;;;;;3.11;100.00;99060.66;5029573;28;20246;-53
2022/04/08 06:55:25;;;;;;;3.50;1.00;;;;;;;2.94;100.00;99075.31;5026570;28;20246;-54
2022/04/08 06:57:52;;;;;;;2.43;1.33;;;;;;;2.92;100.00;99057.19;5015535;28;20240;-55
2022/04/08 07:00:18;;;;;;;2.73;1.20;;;;;;;2.84;100.00;99077.91;5025214;28;20235;-53
2022/04/08 07:02:45;;;;;;;2.03;0.83;;;;;;;2.87;100.00;99079.63;5021971;28;20656;-54
2022/04/08 07:05:11;;;;;;;1.30;1.03;;;;;;;2.77;100.00;99083.94;5027851;28;20385;-56
2022/04/08 07:07:39;;;;;;;2.07;1.13;;;;;;;2.68;100.00;99076.09;5024125;28;23462;-54
2022/04/08 07:10:08;;;;;;;3.60;1.27;;;;;;;2.72;100.00;99062.28;5024889;28;20880;-54
2022/04/08 07:12:34;;;;;;;1.53;1.00;;;;;;;2.74;100.00;99068.38;5020680;28;20743;-54
2022/04/08 07:15:01;;;;;;;3.73;1.40;;;;;;;2.86;100.00;99070.97;5026250;28;20696;-54
2022/04/08 07:17:28;;;;;;;5.10;1.57;;;;;;;2.83;100.00;99075.28;5026033;28;20612;-52
2022/04/08 07:19:55;;;;;;;7.37;1.57;;;;;;;2.76;100.00;99078.72;5023259;28;20239;-52
2022/04/08 07:22:22;;;;;;;4.13;1.33;;;;;;;2.80;100.00;99083.03;5023834;28;20233;-52
2022/04/08 07:24:50;;;;;;;8.63;1.77;;;;;;;2.74;100.00;99083.00;5023932;28;20225;-53
2022/04/08 07:27:17;;;;;;;5.23;1.47;;;;;;;2.84;100.00;99089.97;5024016;28;20259;-52
2022/04/08 07:29:43;;;;;;;5.90;1.30;;;;;;;3.10;100.00;99084.88;5020272;28;20322;-52
2022/04/08 07:32:09;;;;;;;3.27;1.30;;;;;;;3.19;100.00;99097.84;5022126;28;20240;-54
2022/04/08 07:34:36;;;;;;;4.00;0.93;;;;;;;3.39;100.00;99104.81;5017933;28;20259;-51
2022/04/08 07:37:03;;;;;;;7.73;1.33;;;;;;;3.51;100.00;99099.63;5025099;28;20721;-53
2022/04/08 07:39:30;;;;;;;5.33;1.43;;;;;;;3.41;100.00;99105.69;5029667;28;20236;-52
2022/04/08 07:41:58;;;;;;;4.60;1.67;;;;;;;3.37;100.00;99109.13;5025572;28;20246;-52
2022/04/08 07:44:24;;;;;;;4.03;1.37;;;;;;;3.43;100.00;99110.00;5026182;28;20224;-53
2022/04/08 07:46:51;;;;;;;2.20;1.20;;;;;;;3.57;100.00;99107.41;5028336;28;20252;-53
2022/04/08 07:49:19;;;;;;;7.43;1.77;;;;;;;3.65;100.00;99115.22;5027367;28;20301;-52
2022/04/08 07:51:45;;;;;;;3.60;1.40;;;;;;;3.80;100.00;99121.28;5034778;28;20890;-53
2022/04/08 07:54:12;;;;;;;3.03;1.43;;;;;;;3.81;100.00;99123.00;5029247;28;20504;-53
2022/04/08 07:56:38;;;;;;;3.13;1.33;;;;;;;3.87;100.00;99129.09;5027161;28;20707;-54
2022/04/08 07:59:06;;;;;;;6.57;1.70;;;;;;;3.98;100.00;99120.41;5024245;28;20294;-55
2022/04/08 08:01:32;;;;;;;5.23;1.40;;;;;;;4.40;100.00;99135.94;5025430;28;20582;-54
2022/04/08 08:03:58;;;;;;;3.70;1.40;;;;;;;4.42;100.00;99131.59;5026443;28;20765;-54
2022/04/08 08:06:25;;;;;;;4.87;1.43;;;;;;;4.59;100.00;99136.75;5027369;28;20235;-55
2022/04/08 08:08:53;;;;;;;2.10;1.03;;;;;;;4.81;100.00;99138.44;5025567;28;20406;-56
2022/04/08 08:11:19;;;;;;;5.33;1.70;;;;;;;4.99;100.00;99145.31;5030618;28;20326;-56
2022/04/08 08:13:45;;;;;;;4.33;2.03;;;;;;;5.04;100.00;99143.53;5029340;28;20776;-56
2022/04/08 08:16:13;;;;;;;3.03;1.70;;;;;;;5.07;100.00;99137.47;5024770;28;20306;-56
2022/04/08 08:18:39;;;;;;;7.27;1.43;;;;;;;5.23;100.00;99140.00;5022613;28;20260;-55
2022/04/08 08:21:06;;;;;;;7.50;1.67;;;;;;;5.16;100.00;99145.22;5021915;28;20285;-55
2022/04/08 08:23:32;;;;;;;5.37;1.77;;;;;;;5.52;100.00;99146.75;5021429;28;20232;-56
2022/04/08 08:25:59;;;;;;;6.17;1.73;;;;;;;5.55;100.00;99148.50;5025349;28;20652;-56
2022/04/08 08:28:25;;;;;;;5.43;1.53;;;;;;;5.82;100.00;99147.41;5023905;28;20675;-56
2022/04/08 08:30:51;;;;;;;8.27;1.77;;;;;;;5.81;100.00;99159.56;5036666;28;20263;-57
2022/04/08 08:33:19;;;;;;;10.83;2.77;;;;;;;6.09;97.60;99152.44;5021016;28;20236;-57
2022/04/08 08:35:46;;;;;;;5.53;1.80;;;;;;;6.45;96.34;99172.09;5020198;28;20404;-57
2022/04/08 08:38:12;;;;;;;10.43;2.40;;;;;;;6.60;86.01;99170.22;5022039;28;20694;-58
2022/04/08 08:40:43;;;;;;;4.57;1.67;;;;;;;6.79;85.63;99179.59;5023045;28;20241;-58
2022/04/08 08:43:09;;;;;;;9.03;2.67;;;;;;;6.83;85.77;99170.84;5024020;28;20264;-58
2022/04/08 08:45:37;;;;;;;4.33;2.43;;;;;;;6.68;82.89;99176.22;5030340;28;20620;-58
2022/04/08 08:48:05;;;;;;;6.00;1.90;;;;;;;6.72;82.27;99187.50;5024026;28;20262;-58
2022/04/08 08:50:32;;;;;;;6.30;1.67;;;;;;;6.72;81.50;99180.53;5024528;28;20240;-59
2022/04/08 08:52:59;;;;;;;1.80;1.00;;;;;;;6.63;82.07;99189.31;5021276;28;20233;-59
2022/04/08 08:55:26;;;;;;;8.83;2.30;;;;;;;6.72;81.09;99190.09;5017514;28;21959;-58
2022/04/08 08:57:52;;;;;;;11.83;1.80;;;;;;;6.80;80.69;99183.91;5021572;28;20237;-58
2022/04/08 09:00:20;;;;;;;4.37;1.30;;;;;;;7.19;82.86;99192.16;5022729;28;20232;-58
2022/04/08 09:02:49;;;;;;;4.00;1.17;;;;;;;7.47;78.93;99186.59;5022224;28;20267;-58
2022/04/08 09:05:17;;;;;;;2.20;1.27;;;;;;;7.46;73.68;99180.50;5023034;28;20690;-58
2022/04/08 09:07:53;;;;;;;6.60;2.00;;;;;;;7.32;73.45;99195.50;5016109;28;20337;-58
2022/04/08 09:10:24;;;;;;;9.10;2.27;;;;;;;7.25;75.10;99196.47;5020386;28;20252;-57
2022/04/08 09:12:53;;;;;;;3.43;1.10;;;;;;;7.13;74.91;99206.16;5022639;28;20662;-57
2022/04/08 09:15:20;;;;;;;6.97;1.40;;;;;;;7.05;76.78;99200.16;5022735;28;20236;-57
2022/04/08 09:17:46;;;;;;;3.00;1.53;;;;;;;6.92;75.31;99206.41;5014972;28;20266;-56
2022/04/08 09:20:12;;;;;;;5.13;1.20;;;;;;;7.13;77.44;99206.16;5013447;28;20286;-57
2022/04/08 09:22:39;;;;;;;1.97;1.53;;;;;;;7.16;75.19;99210.50;5023314;28;20275;-56
2022/04/08 09:25:11;;;;;;;5.73;1.70;;;;;;;7.71;77.46;99201.06;5024048;28;20232;-57
2022/04/08 09:27:37;;;;;;;2.40;0.80;;;;;;;7.71;73.89;99204.53;5022445;28;20221;-57
2022/04/08 09:30:05;;;;;;;2.07;0.90;;;;;;;7.97;74.06;99204.19;5013183;28;20278;-57
2022/04/08 09:32:31;;;;;;;6.33;1.97;;;;;;;8.16;72.87;99211.72;5022323;28;20232;-57
2022/04/08 09:34:58;;;;;;;7.63;1.30;;;;;;;7.65;70.77;99210.72;5007579;28;20241;-58
2022/04/08 09:37:24;;;;;;;2.40;1.33;;;;;;;7.59;69.18;99218.63;5004500;28;20237;-56
2022/04/08 09:39:58;;;;;;;2.17;1.40;;;;;;;7.50;70.42;99218.75;5006367;28;20703;-57
2022/04/08 09:42:43;;;;;;;6.87;1.50;;;;;;;7.46;68.76;99214.47;5022400;28;20286;-56
2022/04/08 09:45:10;;;;;;;5.33;1.50;;;;;;;7.44;68.58;99211.03;5006645;28;20271;-57
2022/04/08 09:47:36;;;;;;;6.47;1.50;;;;;;;7.40;67.56;99210.16;5019415;28;20229;-56
2022/04/08 09:50:03;;;;;;;3.17;0.93;;;;;;;7.69;66.98;99202.81;5021082;28;20330;-56
2022/04/08 09:52:30;;;;;;;3.60;1.20;;;;;;;8.03;67.13;99201.44;5018488;28;20224;-57
2022/04/08 09:54:59;;;;;;;3.83;1.43;;;;;;;8.24;65.16;99202.00;5023870;28;20259;-56
2022/04/08 09:57:28;;;;;;;2.00;1.10;;;;;;;8.21;64.34;99202.91;5023272;28;20689;-55
2022/04/08 09:59:59;;;;;;;2.97;1.50;;;;;;;8.12;60.48;99196.09;5018795;28;20236;-57
2022/04/08 10:02:27;;;;;;;1.67;1.47;;;;;;;8.13;62.36;99205.66;5015767;28;20232;-56
2022/04/08 10:04:55;;;;;;;2.27;1.00;;;;;;;8.12;63.26;99209.16;5012293;28;20282;-56
2022/04/08 10:07:22;;;;;;;6.60;1.40;;;;;;;8.12;64.06;99209.16;5014574;28;20294;-56
2022/04/08 10:09:54;;;;;;;1.57;1.10;;;;;;;8.00;63.12;99206.75;5022805;28;20243;-57
2022/04/08 10:12:28;;;;;;;4.83;1.33;;;;;;;7.91;63.80;99211.25;5021240;28;20233;-58
2022/04/08 10:15:08;;;;;;;1.03;0.87;;;;;;;7.97;64.81;99226.81;5017875;28;20285;-57
2022/04/08 10:17:34;;;;;;;2.40;0.90;;;;;;;7.76;65.55;99209.72;5021484;28;20243;-57
2022/04/08 10:20:17;;;;;;;3.63;1.43;;;;;;;7.50;65.18;99228.34;5017367;28;20278;-55
2022/04/08 10:22:43;;;;;;;1.30;1.07;;;;;;;7.32;66.17;99216.38;5019819;28;20236;-57
2022/04/08 10:25:14;;;;;;;2.27;1.13;;;;;;;7.52;64.88;99224.84;5014539;28;20764;-56
2022/04/08 10:27:43;;;;;;;2.90;1.10;;;;;;;7.34;64.83;99223.31;5021182;28;20228;-56
2022/04/08 10:30:14;;;;;;;2.57;1.10;;;;;;;7.61;64.84;99223.84;5018341;28;20240;-58
2022/04/08 10:32:42;;;;;;;6.53;1.53;;;;;;;7.88;63.03;99214.75;5022631;28;20236;-57
2022/04/08 10:35:17;;;;;;;3.27;1.37;;;;;;;8.05;61.98;99204.91;4999180;28;20751;-57
2022/04/08 10:37:54;;;;;;;5.53;1.23;;;;;;;8.37;61.38;99200.91;5003073;28;20236;-57
2022/04/08 10:40:21;;;;;;;4.10;1.10;;;;;;;8.25;58.77;99201.09;5019350;28;20225;-57
2022/04/08 10:42:58;;;;;;;1.40;1.30;;;;;;;8.39;56.76;99209.66;5023040;28;20232;-56
2022/04/08 10:45:27;;;;;;;1.90;1.03;;;;;;;8.33;56.66;99196.63;5033195;28;20596;-57
2022/04/08 10:47:53;;;;;;;3.60;1.97;;;;;;;8.44;55.95;99194.72;5017410;28;20232;-57
2022/04/08 10:50:27;;;;;;;1.87;1.43;;;;;;;8.41;56.21;99194.78;5031784;28;20231;-56
2022/04/08 10:53:05;;;;;;;4.90;1.30;;;;;;;8.20;56.45;99193.34;5024269;28;20393;-57
2022/04/08 10:55:31;;;;;;;2.83;1.00;;;;;;;8.42;57.45;99193.88;5017389;28;20666;-56
2022/04/08 10:57:59;;;;;;;2.47;1.60;;;;;;;8.26;58.03;99202.84;5026898;28;20609;-56
2022/04/08 11:00:26;;;;;;;5.03;1.33;;;;;;;8.16;57.37;99194.28;5014758;28;20232;-56
2022/04/08 11:02:54;;;;;;;2.87;1.23;;;;;;;7.91;59.92;99214.72;5024497;28;20227;-57
2022/04/08 11:05:21;;;;;;;3.27;2.03;;;;;;;7.67;62.11;99210.69;5023359;28;20298;-55
2022/04/08 11:07:48;;;;;;;1.23;1.00;;;;;;;8.09;63.42;99206.59;5026057;28;20907;-57
2022/04/08 11:10:16;;;;;;;4.77;2.83;;;;;;;8.03;62.00;99198.84;5001512;28;20249;-55
2022/04/08 11:12:46;;;;;;;3.40;1.50;;;;;;;8.06;62.14;99196.19;5005437;28;20283;-56
2022/04/08 11:15:18;;;;;;;2.20;1.43;;;;;;;8.08;62.84;99193.56;4998073;28;20246;-57
2022/04/08 11:17:45;;;;;;;0.97;0.70;;;;;;;7.95;62.36;99195.47;5025404;28;20236;-57
2022/04/08 11:20:13;;;;;;;1.10;1.00;;;;;;;7.94;63.54;99185.94;5024606;28;20314;-57
2022/04/08 11:22:40;;;;;;;2.20;1.70;;;;;;;8.06;63.50;99180.50;5027069;28;20236;-56
2022/04/08 11:25:08;;;;;;;1.87;1.30;;;;;;;8.01;63.19;99186.69;5020736;28;20237;-57
2022/04/08 11:27:35;;;;;;;1.97;1.00;;;;;;;7.88;63.73;99191.25;5025553;28;20224;-57
2022/04/08 11:30:01;;;;;;;1.63;1.10;;;;;;;7.86;64.89;99193.00;5031787;28;20236;-56
2022/04/08 11:32:32;;;;;;;4.67;1.20;;;;;;;7.83;64.89;99193.06;5027801;28;20599;-56
2022/04/08 11:34:58;;;;;;;2.70;1.37;;;;;;;7.91;65.17;99190.34;5031641;28;20730;-56
2022/04/08 11:37:26;;;;;;;1.63;1.37;;;;;;;8.21;64.74;99178.50;5021013;28;20233;-56